sensor_id;sensor_type;location;lat;lon;timestamp;pressure;altitude;pressure_sealevel;temperature;humidity
3178;BME280;38141;42.666;23.344;2023-02-03T00:01:46;94866.78;;;3.65;100.00
3178;BME280;38141;42.666;23.344;2023-02-03T00:04:13;94848.84;;;3.53;100.00
3178;BME280;38141;42.666;23.344;2023-02-03T00:06:40;94854.09;;;3.62;100.00
3178;BME280;38141;42.666;23.344;2023-02-03T00:09:08;94852.84;;;3.59;100.00
3178;BME280;38141;42.666;23.344;2023-02-03T00:11:34;94870.50;;;3.72;100.00
3178;BME280;38141;42.666;23.344;2023-02-03T00:14:01;94869.03;;;3.63;100.00
3178;BME280;38141;42.666;23.344;2023-02-03T00:16:29;94874.13;;;3.55;100.00
3178;BME280;38141;42.666;23.344;2023-02-03T00:18:58;94878.81;;;3.46;100.00
3178;BME280;38141;42.666;23.344;2023-02-03T00:21:24;94874.91;;;3.44;100.00
3178;BME280;38141;42.666;23.344;2023-02-03T00:23:51;94860.06;;;3.22;100.00
3178;BME280;38141;42.666;23.344;2023-02-03T00:26:19;94877.91;;;3.42;100.00
3178;BME280;38141;42.666;23.344;2023-02-03T00:28:46;94873.75;;;3.21;100.00
3178;BME280;38141;42.666;23.344;2023-02-03T00:31:14;94852.47;;;3.12;100.00
3178;BME280;38141;42.666;23.344;2023-02-03T00:33:42;94856.34;;;3.14;100.00
3178;BME280;38141;42.666;23.344;2023-02-03T00:36:11;94870.53;;;3.27;100.00
3178;BME280;38141;42.666;23.344;2023-02-03T00:38:38;94883.47;;;3.37;100.00
3178;BME280;38141;42.666;23.344;2023-02-03T00:41:05;94894.47;;;3.24;100.00
3178;BME280;38141;42.666;23.344;2023-02-03T00:43:32;94905.84;;;3.33;100.00
3178;BME280;38141;42.666;23.344;2023-02-03T00:45:58;94889.69;;;3.29;100.00
3178;BME280;38141;42.666;23.344;2023-02-03T00:48:25;94892.06;;;3.31;100.00
3178;BME280;38141;42.666;23.344;2023-02-03T00:50:52;94905.56;;;3.13;100.00
3178;BME280;38141;42.666;23.344;2023-02-03T00:53:20;94899.13;;;3.14;100.00
3178;BME280;38141;42.666;23.344;2023-02-03T00:55:47;94901.19;;;3.30;100.00
3178;BME280;38141;42.666;23.344;2023-02-03T00:58:14;94903.28;;;3.24;100.00
3178;BME280;38141;42.666;23.344;2023-02-03T01:00:41;94892.66;;;3.16;100.00
3178;BME280;38141;42.666;23.344;2023-02-03T01:03:07;94916.94;;;3.10;100.00
3178;BME280;38141;42.666;23.344;2023-02-03T01:05:34;94915.41;;;3.22;100.00
3178;BME280;38141;42.666;23.344;2023-02-03T01:08:02;94923.91;;;3.36;100.00
3178;BME280;38141;42.666;23.344;2023-02-03T01:10:30;94925.31;;;3.21;100.00
3178;BME280;38141;42.666;23.344;2023-02-03T01:12:57;94924.84;;;3.19;100.00
3178;BME280;38141;42.666;23.344;2023-02-03T01:15:24;94914.16;;;3.19;100.00
3178;BME280;38141;42.666;23.344;2023-02-03T01:17:51;94913.53;;;3.22;100.00
3178;BME280;38141;42.666;23.344;2023-02-03T01:20:18;94900.56;;;3.12;100.00
3178;BME280;38141;42.666;23.344;2023-02-03T01:22:46;94901.69;;;3.11;100.00
3178;BME280;38141;42.666;23.344;2023-02-03T01:25:12;94911.97;;;3.00;100.00
3178;BME280;38141;42.666;23.344;2023-02-03T01:27:40;94895.16;;;3.00;100.00
3178;BME280;38141;42.666;23.344;2023-02-03T01:30:08;94890.59;;;3.00;100.00
3178;BME280;38141;42.666;23.344;2023-02-03T01:32:35;94895.31;;;3.03;100.00
3178;BME280;38141;42.666;23.344;2023-02-03T01:35:02;94897.19;;;3.03;100.00
3178;BME280;38141;42.666;23.344;2023-02-03T01:37:29;94888.13;;;2.95;100.00
3178;BME280;38141;42.666;23.344;2023-02-03T01:39:55;94903.19;;;3.00;100.00
3178;BME280;38141;42.666;23.344;2023-02-03T01:42:22;94911.94;;;2.88;100.00
3178;BME280;38141;42.666;23.344;2023-02-03T01:44:51;94897.75;;;2.76;100.00
3178;BME280;38141;42.666;23.344;2023-02-03T01:47:26;94909.28;;;2.88;100.00
3178;BME280;38141;42.666;23.344;2023-02-03T01:50:08;94917.09;;;2.73;100.00
3178;BME280;38141;42.666;23.344;2023-02-03T01:52:38;94914.78;;;2.71;100.00
3178;BME280;38141;42.666;23.344;2023-02-03T01:55:09;94913.41;;;2.65;100.00
3178;BME280;38141;42.666;23.344;2023-02-03T01:57:42;94924.00;;;2.74;100.00
3178;BME280;38141;42.666;23.344;2023-02-03T02:00:14;94917.81;;;2.61;100.00
3178;BME280;38141;42.666;23.344;2023-02-03T02:02:42;94898.09;;;2.53;100.00
3178;BME280;38141;42.666;23.344;2023-02-03T02:05:15;94927.78;;;2.73;100.00
3178;BME280;38141;42.666;23.344;2023-02-03T02:07:44;94937.56;;;2.68;100.00
3178;BME280;38141;42.666;23.344;2023-02-03T02:10:12;94921.16;;;2.58;100.00
3178;BME280;38141;42.666;23.344;2023-02-03T02:12:39;94933.66;;;2.66;100.00
3178;BME280;38141;42.666;23.344;2023-02-03T02:15:06;94924.13;;;2.77;100.00
3178;BME280;38141;42.666;23.344;2023-02-03T02:17:50;94924.13;;;2.77;100.00
3178;BME280;38141;42.666;23.344;2023-02-03T02:20:33;94937.13;;;2.66;100.00
3178;BME280;38141;42.666;23.344;2023-02-03T02:29:40;94943.69;;;2.69;100.00
3178;BME280;38141;42.666;23.344;2023-02-03T02:32:19;94924.75;;;2.62;100.00
3178;BME280;38141;42.666;23.344;2023-02-03T02:34:58;94940.75;;;2.83;100.00
3178;BME280;38141;42.666;23.344;2023-02-03T02:37:36;94940.50;;;2.76;100.00
3178;BME280;38141;42.666;23.344;2023-02-03T02:40:11;94940.94;;;2.57;100.00
3178;BME280;38141;42.666;23.344;2023-02-03T02:42:47;94951.25;;;2.67;100.00
3178;BME280;38141;42.666;23.344;2023-02-03T02:45:21;94960.88;;;2.59;100.00
3178;BME280;38141;42.666;23.344;2023-02-03T02:47:55;94952.78;;;2.68;100.00
3178;BME280;38141;42.666;23.344;2023-02-03T02:50:28;94949.38;;;2.67;100.00
3178;BME280;38141;42.666;23.344;2023-02-03T02:52:58;94959.97;;;2.76;100.00
3178;BME280;38141;42.666;23.344;2023-02-03T02:55:28;94961.19;;;2.79;100.00
3178;BME280;38141;42.666;23.344;2023-02-03T02:58:01;94958.47;;;2.66;100.00
3178;BME280;38141;42.666;23.344;2023-02-03T03:00:30;94953.19;;;2.58;100.00
3178;BME280;38141;42.666;23.344;2023-02-03T03:03:09;94956.25;;;2.48;100.00
3178;BME280;38141;42.666;23.344;2023-02-03T03:05:38;94946.94;;;2.54;100.00
3178;BME280;38141;42.666;23.344;2023-02-03T03:08:07;94912.75;;;2.27;100.00
3178;BME280;38141;42.666;23.344;2023-02-03T03:10:36;94955.66;;;2.42;100.00
3178;BME280;38141;42.666;23.344;2023-02-03T03:13:07;94967.28;;;2.38;100.00
3178;BME280;38141;42.666;23.344;2023-02-03T03:15:37;94957.28;;;2.35;100.00
3178;BME280;38141;42.666;23.344;2023-02-03T03:18:12;94964.63;;;2.38;100.00
3178;BME280;38141;42.666;23.344;2023-02-03T03:20:40;94977.66;;;2.39;100.00
3178;BME280;38141;42.666;23.344;2023-02-03T03:23:12;94954.66;;;2.26;100.00
3178;BME280;38141;42.666;23.344;2023-02-03T03:25:43;94973.59;;;2.33;100.00
3178;BME280;38141;42.666;23.344;2023-02-03T03:28:15;94952.34;;;2.16;100.00
3178;BME280;38141;42.666;23.344;2023-02-03T03:30:42;94960.78;;;2.27;100.00
3178;BME280;38141;42.666;23.344;2023-02-03T03:33:11;94964.22;;;2.27;100.00
3178;BME280;38141;42.666;23.344;2023-02-03T03:35:41;94944.53;;;2.11;100.00
3178;BME280;38141;42.666;23.344;2023-02-03T03:38:17;94965.19;;;2.22;100.00
3178;BME280;38141;42.666;23.344;2023-02-03T03:40:51;94971.59;;;2.30;100.00
3178;BME280;38141;42.666;23.344;2023-02-03T03:43:24;94972.69;;;2.29;100.00
3178;BME280;38141;42.666;23.344;2023-02-03T03:45:56;94975.41;;;2.20;100.00
3178;BME280;38141;42.666;23.344;2023-02-03T03:48:27;94962.66;;;2.26;100.00
3178;BME280;38141;42.666;23.344;2023-02-03T03:51:01;94986.75;;;2.38;100.00
3178;BME280;38141;42.666;23.344;2023-02-03T03:53:31;94985.00;;;2.42;100.00
3178;BME280;38141;42.666;23.344;2023-02-03T03:56:01;94976.56;;;2.40;100.00
3178;BME280;38141;42.666;23.344;2023-02-03T03:58:31;94974.47;;;2.46;100.00
3178;BME280;38141;42.666;23.344;2023-02-03T04:01:01;94959.75;;;2.40;100.00
3178;BME280;38141;42.666;23.344;2023-02-03T04:03:32;94977.91;;;2.46;100.00
3178;BME280;38141;42.666;23.344;2023-02-03T04:06:01;94993.31;;;2.49;100.00
3178;BME280;38141;42.666;23.344;2023-02-03T04:08:27;94966.50;;;2.37;100.00
3178;BME280;38141;42.666;23.344;2023-02-03T04:10:54;94981.75;;;2.37;100.00
3178;BME280;38141;42.666;23.344;2023-02-03T04:13:21;94997.72;;;2.45;100.00
3178;BME280;38141;42.666;23.344;2023-02-03T04:15:48;94999.44;;;2.50;100.00
3178;BME280;38141;42.666;23.344;2023-02-03T04:18:15;95008.34;;;2.54;100.00
3178;BME280;38141;42.666;23.344;2023-02-03T04:20:43;95011.69;;;2.42;100.00
3178;BME280;38141;42.666;23.344;2023-02-03T04:23:10;95033.41;;;2.41;100.00
3178;BME280;38141;42.666;23.344;2023-02-03T04:25:36;95030.03;;;2.52;100.00
3178;BME280;38141;42.666;23.344;2023-02-03T04:28:03;95043.50;;;2.56;100.00
3178;BME280;38141;42.666;23.344;2023-02-03T04:30:31;95040.75;;;2.44;100.00
3178;BME280;38141;42.666;23.344;2023-02-03T04:32:58;95046.53;;;2.54;100.00
3178;BME280;38141;42.666;23.344;2023-02-03T04:35:25;95039.56;;;2.62;100.00
3178;BME280;38141;42.666;23.344;2023-02-03T04:37:53;95049.47;;;2.61;100.00
3178;BME280;38141;42.666;23.344;2023-02-03T04:40:20;95047.00;;;2.48;100.00
3178;BME280;38141;42.666;23.344;2023-02-03T04:42:47;95055.09;;;2.60;100.00
3178;BME280;38141;42.666;23.344;2023-02-03T04:45:14;95063.63;;;2.53;100.00
3178;BME280;38141;42.666;23.344;2023-02-03T04:47:40;95063.03;;;2.48;100.00
3178;BME280;38141;42.666;23.344;2023-02-03T04:50:08;95065.44;;;2.41;100.00
3178;BME280;38141;42.666;23.344;2023-02-03T04:52:35;95073.34;;;2.58;100.00
3178;BME280;38141;42.666;23.344;2023-02-03T04:55:03;95065.47;;;2.61;100.00
3178;BME280;38141;42.666;23.344;2023-02-03T04:57:30;95063.63;;;2.53;100.00
3178;BME280;38141;42.666;23.344;2023-02-03T04:59:57;95058.44;;;2.57;100.00
3178;BME280;38141;42.666;23.344;2023-02-03T05:02:24;95071.44;;;2.67;100.00
3178;BME280;38141;42.666;23.344;2023-02-03T05:04:51;95085.03;;;2.74;100.00
3178;BME280;38141;42.666;23.344;2023-02-03T05:07:17;95080.06;;;2.64;100.00
3178;BME280;38141;42.666;23.344;2023-02-03T05:09:44;95093.22;;;2.69;100.00
3178;BME280;38141;42.666;23.344;2023-02-03T05:12:12;95091.88;;;2.63;100.00
3178;BME280;38141;42.666;23.344;2023-02-03T05:14:39;95087.59;;;2.71;100.00
3178;BME280;38141;42.666;23.344;2023-02-03T05:17:06;95093.22;;;2.69;100.00
3178;BME280;38141;42.666;23.344;2023-02-03T05:19:32;95085.44;;;2.55;100.00
3178;BME280;38141;42.666;23.344;2023-02-03T05:21:59;95090.38;;;2.45;100.00
3178;BME280;38141;42.666;23.344;2023-02-03T05:24:26;95099.63;;;2.47;100.00
3178;BME280;38141;42.666;23.344;2023-02-03T05:26:53;95092.97;;;2.62;100.00
3178;BME280;38141;42.666;23.344;2023-02-03T05:29:21;95104.06;;;2.73;100.00
3178;BME280;38141;42.666;23.344;2023-02-03T05:31:47;95104.22;;;2.76;100.00
3178;BME280;38141;42.666;23.344;2023-02-03T05:34:14;95105.97;;;2.72;100.00
3178;BME280;38141;42.666;23.344;2023-02-03T05:36:41;95091.44;;;2.52;100.00
3178;BME280;38141;42.666;23.344;2023-02-03T05:39:08;95098.34;;;2.53;100.00
3178;BME280;38141;42.666;23.344;2023-02-03T05:41:34;95090.22;;;2.41;100.00
3178;BME280;38141;42.666;23.344;2023-02-03T05:44:18;95095.75;;;2.36;100.00
3178;BME280;38141;42.666;23.344;2023-02-03T05:46:47;95101.84;;;2.37;100.00
3178;BME280;38141;42.666;23.344;2023-02-03T05:49:14;95102.81;;;2.41;100.00
3178;BME280;38141;42.666;23.344;2023-02-03T05:51:41;95078.22;;;2.27;100.00
3178;BME280;38141;42.666;23.344;2023-02-03T05:54:08;95091.06;;;2.24;100.00
3178;BME280;38141;42.666;23.344;2023-02-03T05:56:35;95086.25;;;2.18;100.00
3178;BME280;38141;42.666;23.344;2023-02-03T05:59:03;95126.00;;;2.49;100.00
3178;BME280;38141;42.666;23.344;2023-02-03T06:01:30;95113.31;;;2.37;100.00
3178;BME280;38141;42.666;23.344;2023-02-03T06:03:58;95104.34;;;2.42;100.00
3178;BME280;38141;42.666;23.344;2023-02-03T06:06:25;95136.69;;;2.49;100.00
3178;BME280;38141;42.666;23.344;2023-02-03T06:08:57;95126.59;;;2.63;100.00
3178;BME280;38141;42.666;23.344;2023-02-03T06:11:24;95122.69;;;2.90;100.00
3178;BME280;38141;42.666;23.344;2023-02-03T06:13:51;95126.91;;;2.91;100.00
3178;BME280;38141;42.666;23.344;2023-02-03T06:16:17;95112.50;;;2.83;100.00
3178;BME280;38141;42.666;23.344;2023-02-03T06:18:44;95129.56;;;2.91;100.00
3178;BME280;38141;42.666;23.344;2023-02-03T06:21:12;95125.38;;;3.10;100.00
3178;BME280;38141;42.666;23.344;2023-02-03T06:23:39;95136.50;;;3.42;100.00
3178;BME280;38141;42.666;23.344;2023-02-03T06:26:06;95110.66;;;3.46;100.00
3178;BME280;38141;42.666;23.344;2023-02-03T06:28:32;95124.78;;;3.88;100.00
3178;BME280;38141;42.666;23.344;2023-02-03T06:30:59;95114.28;;;4.16;93.61
3178;BME280;38141;42.666;23.344;2023-02-03T06:33:26;95142.03;;;4.56;88.66
3178;BME280;38141;42.666;23.344;2023-02-03T06:35:53;95135.38;;;4.86;85.36
3178;BME280;38141;42.666;23.344;2023-02-03T06:38:22;95153.00;;;5.24;79.63
3178;BME280;38141;42.666;23.344;2023-02-03T06:40:49;95165.75;;;5.39;76.85
3178;BME280;38141;42.666;23.344;2023-02-03T06:43:16;95155.31;;;5.50;74.12
3178;BME280;38141;42.666;23.344;2023-02-03T06:45:44;95158.66;;;5.71;71.81
3178;BME280;38141;42.666;23.344;2023-02-03T06:48:13;95169.56;;;6.18;70.96
3178;BME280;38141;42.666;23.344;2023-02-03T06:50:40;95170.03;;;6.63;66.50
3178;BME280;38141;42.666;23.344;2023-02-03T06:53:07;95156.19;;;6.93;63.42
3178;BME280;38141;42.666;23.344;2023-02-03T06:55:35;95167.84;;;7.32;60.82
3178;BME280;38141;42.666;23.344;2023-02-03T06:58:02;95159.28;;;7.10;60.66
3178;BME280;38141;42.666;23.344;2023-02-03T07:00:28;95155.56;;;7.15;58.78
3178;BME280;38141;42.666;23.344;2023-02-03T07:02:57;95178.66;;;6.85;60.14
3178;BME280;38141;42.666;23.344;2023-02-03T07:05:24;95156.19;;;7.08;59.54
3178;BME280;38141;42.666;23.344;2023-02-03T07:07:52;95151.66;;;7.12;59.61
3178;BME280;38141;42.666;23.344;2023-02-03T07:10:19;95149.81;;;6.38;61.85
3178;BME280;38141;42.666;23.344;2023-02-03T07:12:47;95144.22;;;6.75;61.02
3178;BME280;38141;42.666;23.344;2023-02-03T07:15:15;95135.03;;;7.42;59.23
3178;BME280;38141;42.666;23.344;2023-02-03T07:17:42;95137.38;;;7.43;59.13
3178;BME280;38141;42.666;23.344;2023-02-03T07:20:09;95139.16;;;7.90;57.87
3178;BME280;38141;42.666;23.344;2023-02-03T07:22:36;95140.28;;;8.08;56.29
3178;BME280;38141;42.666;23.344;2023-02-03T07:25:06;95142.44;;;8.60;54.84
3178;BME280;38141;42.666;23.344;2023-02-03T07:27:33;95140.81;;;9.76;51.52
3178;BME280;38141;42.666;23.344;2023-02-03T07:30:01;95135.13;;;13.55;43.57
3178;BME280;38141;42.666;23.344;2023-02-03T07:32:29;95164.06;;;14.50;40.40
3178;BME280;38141;42.666;23.344;2023-02-03T07:34:55;95158.06;;;15.42;38.34
3178;BME280;38141;42.666;23.344;2023-02-03T07:37:22;95143.50;;;14.39;38.95
3178;BME280;38141;42.666;23.344;2023-02-03T07:39:49;95162.44;;;12.26;42.97
3178;BME280;38141;42.666;23.344;2023-02-03T07:42:15;95143.78;;;9.42;48.39
3178;BME280;38141;42.666;23.344;2023-02-03T07:44:42;95163.69;;;9.07;50.56
3178;BME280;38141;42.666;23.344;2023-02-03T07:47:10;95170.94;;;9.26;49.32
3178;BME280;38141;42.666;23.344;2023-02-03T07:49:37;95168.41;;;8.91;50.96
3178;BME280;38141;42.666;23.344;2023-02-03T07:52:04;95177.47;;;9.77;49.38
3178;BME280;38141;42.666;23.344;2023-02-03T07:54:31;95178.44;;;9.62;49.55
3178;BME280;38141;42.666;23.344;2023-02-03T07:56:57;95163.63;;;9.53;48.83
3178;BME280;38141;42.666;23.344;2023-02-03T07:59:24;95166.03;;;9.58;48.54
3178;BME280;38141;42.666;23.344;2023-02-03T08:01:51;95172.16;;;9.81;48.01
3178;BME280;38141;42.666;23.344;2023-02-03T08:04:21;95178.00;;;10.46;48.26
3178;BME280;38141;42.666;23.344;2023-02-03T08:06:48;95170.19;;;10.08;48.63
3178;BME280;38141;42.666;23.344;2023-02-03T08:09:15;95164.72;;;11.08;47.01
3178;BME280;38141;42.666;23.344;2023-02-03T08:11:42;95182.00;;;11.88;45.41
3178;BME280;38141;42.666;23.344;2023-02-03T08:14:09;95167.66;;;11.87;44.52
3178;BME280;38141;42.666;23.344;2023-02-03T08:16:36;95190.91;;;12.75;42.33
3178;BME280;38141;42.666;23.344;2023-02-03T08:19:02;95197.91;;;15.26;39.26
3178;BME280;38141;42.666;23.344;2023-02-03T08:21:31;95201.41;;;20.20;32.04
3178;BME280;38141;42.666;23.344;2023-02-03T08:23:58;95220.19;;;23.86;27.72
3178;BME280;38141;42.666;23.344;2023-02-03T08:26:25;95215.03;;;22.02;28.40
3178;BME280;38141;42.666;23.344;2023-02-03T08:28:51;95220.69;;;24.52;25.91
3178;BME280;38141;42.666;23.344;2023-02-03T08:31:18;95226.94;;;23.85;27.05
3178;BME280;38141;42.666;23.344;2023-02-03T08:33:45;95232.13;;;27.79;22.87
3178;BME280;38141;42.666;23.344;2023-02-03T08:36:12;95224.88;;;26.99;23.69
3178;BME280;38141;42.666;23.344;2023-02-03T08:38:40;95239.09;;;28.74;21.76
3178;BME280;38141;42.666;23.344;2023-02-03T08:41:08;95226.44;;;23.69;25.16
3178;BME280;38141;42.666;23.344;2023-02-03T08:43:35;95225.56;;;20.86;27.83
3178;BME280;38141;42.666;23.344;2023-02-03T08:46:02;95211.44;;;22.27;26.68
3178;BME280;38141;42.666;23.344;2023-02-03T08:48:29;95213.84;;;17.78;30.95
3178;BME280;38141;42.666;23.344;2023-02-03T08:50:56;95235.28;;;18.93;30.26
3178;BME280;38141;42.666;23.344;2023-02-03T08:53:23;95145.47;;;18.97;29.48
3178;BME280;38141;42.666;23.344;2023-02-03T08:55:51;95236.06;;;15.22;34.40
3178;BME280;38141;42.666;23.344;2023-02-03T08:58:18;95222.34;;;14.63;35.95
3178;BME280;38141;42.666;23.344;2023-02-03T09:00:45;95247.38;;;14.02;36.94
3178;BME280;38141;42.666;23.344;2023-02-03T09:03:14;95238.81;;;15.84;35.26
3178;BME280;38141;42.666;23.344;2023-02-03T09:05:40;95227.72;;;14.81;36.09
3178;BME280;38141;42.666;23.344;2023-02-03T09:08:07;95234.34;;;16.42;34.30
3178;BME280;38141;42.666;23.344;2023-02-03T09:10:34;95227.94;;;17.23;31.39
3178;BME280;38141;42.666;23.344;2023-02-03T09:13:03;95257.22;;;15.00;36.95
3178;BME280;38141;42.666;23.344;2023-02-03T09:15:29;95220.91;;;19.93;29.38
3178;BME280;38141;42.666;23.344;2023-02-03T09:17:56;95232.50;;;15.91;34.87
3178;BME280;38141;42.666;23.344;2023-02-03T09:20:23;95218.06;;;17.03;33.00
3178;BME280;38141;42.666;23.344;2023-02-03T09:22:53;95222.53;;;15.04;36.63
3178;BME280;38141;42.666;23.344;2023-02-03T09:25:20;95235.94;;;16.77;33.80
3178;BME280;38141;42.666;23.344;2023-02-03T09:27:46;95232.31;;;20.24;29.27
3178;BME280;38141;42.666;23.344;2023-02-03T09:30:15;95235.19;;;22.11;27.82
3178;BME280;38141;42.666;23.344;2023-02-03T09:32:42;95217.69;;;17.01;32.30
3178;BME280;38141;42.666;23.344;2023-02-03T09:35:13;95224.03;;;19.43;29.92
3178;BME280;38141;42.666;23.344;2023-02-03T09:37:40;95199.56;;;17.91;31.71
3178;BME280;38141;42.666;23.344;2023-02-03T09:40:09;95205.97;;;17.54;31.71
3178;BME280;38141;42.666;23.344;2023-02-03T09:42:54;95216.69;;;15.09;35.03
3178;BME280;38141;42.666;23.344;2023-02-03T09:45:27;95224.06;;;13.69;38.37
3178;BME280;38141;42.666;23.344;2023-02-03T09:47:59;95206.56;;;13.95;37.41
3178;BME280;38141;42.666;23.344;2023-02-03T09:50:32;95225.56;;;14.09;37.26
3178;BME280;38141;42.666;23.344;2023-02-03T09:53:05;95230.19;;;11.17;40.60
3178;BME280;38141;42.666;23.344;2023-02-03T09:55:36;95219.69;;;10.42;42.43
3178;BME280;38141;42.666;23.344;2023-02-03T09:58:07;95214.44;;;11.77;40.26
3178;BME280;38141;42.666;23.344;2023-02-03T10:00:41;95207.94;;;11.85;39.79
3178;BME280;38141;42.666;23.344;2023-02-03T10:03:15;95192.59;;;11.56;40.31
3178;BME280;38141;42.666;23.344;2023-02-03T10:06:00;95185.00;;;10.51;42.80
3178;BME280;38141;42.666;23.344;2023-02-03T10:08:38;95186.03;;;11.57;42.18
3178;BME280;38141;42.666;23.344;2023-02-03T10:11:19;95181.09;;;12.35;39.28
3178;BME280;38141;42.666;23.344;2023-02-03T10:14:01;95178.25;;;12.14;39.18
3178;BME280;38141;42.666;23.344;2023-02-03T10:16:44;95179.91;;;12.32;39.29
3178;BME280;38141;42.666;23.344;2023-02-03T10:19:17;95194.91;;;11.10;41.23
3178;BME280;38141;42.666;23.344;2023-02-03T10:21:48;95197.50;;;10.99;41.77
3178;BME280;38141;42.666;23.344;2023-02-03T10:24:20;95185.22;;;10.68;42.02
3178;BME280;38141;42.666;23.344;2023-02-03T10:26:51;95187.97;;;10.39;42.79
3178;BME280;38141;42.666;23.344;2023-02-03T10:29:21;95200.13;;;10.55;43.04
3178;BME280;38141;42.666;23.344;2023-02-03T10:31:54;95181.13;;;9.62;44.53
3178;BME280;38141;42.666;23.344;2023-02-03T10:34:23;95191.81;;;8.83;45.98
3178;BME280;38141;42.666;23.344;2023-02-03T10:36:55;95174.16;;;8.67;46.03
3178;BME280;38141;42.666;23.344;2023-02-03T10:39:30;95181.81;;;8.65;45.39
3178;BME280;38141;42.666;23.344;2023-02-03T10:41:57;95161.69;;;8.01;45.89
3178;BME280;38141;42.666;23.344;2023-02-03T10:44:30;95163.06;;;8.30;46.26
3178;BME280;38141;42.666;23.344;2023-02-03T10:46:59;95171.78;;;7.69;47.06
3178;BME280;38141;42.666;23.344;2023-02-03T10:49:27;95179.31;;;7.44;48.18
3178;BME280;38141;42.666;23.344;2023-02-03T10:51:57;95172.13;;;7.33;48.65
3178;BME280;38141;42.666;23.344;2023-02-03T10:54:29;95175.44;;;7.77;48.83
3178;BME280;38141;42.666;23.344;2023-02-03T10:57:01;95183.66;;;7.84;48.84
3178;BME280;38141;42.666;23.344;2023-02-03T10:59:30;95174.66;;;7.26;48.34
3178;BME280;38141;42.666;23.344;2023-02-03T11:02:06;95162.03;;;6.51;48.38
3178;BME280;38141;42.666;23.344;2023-02-03T11:04:34;95153.06;;;6.32;47.62
3178;BME280;38141;42.666;23.344;2023-02-03T11:07:03;95176.34;;;6.40;46.89
3178;BME280;38141;42.666;23.344;2023-02-03T11:09:34;95178.72;;;6.72;47.55
3178;BME280;38141;42.666;23.344;2023-02-03T11:12:05;95184.00;;;6.69;47.36
3178;BME280;38141;42.666;23.344;2023-02-03T11:14:38;95171.78;;;6.87;47.58
3178;BME280;38141;42.666;23.344;2023-02-03T11:17:13;95184.97;;;7.39;47.76
3178;BME280;38141;42.666;23.344;2023-02-03T11:19:43;95165.97;;;8.21;45.48
3178;BME280;38141;42.666;23.344;2023-02-03T11:22:11;95165.84;;;7.79;45.68
3178;BME280;38141;42.666;23.344;2023-02-03T11:24:39;95175.66;;;7.37;45.57
3178;BME280;38141;42.666;23.344;2023-02-03T11:27:10;95159.91;;;7.54;45.27
3178;BME280;38141;42.666;23.344;2023-02-03T11:29:41;95150.19;;;8.23;43.51
3178;BME280;38141;42.666;23.344;2023-02-03T11:32:17;95144.19;;;8.30;44.17
3178;BME280;38141;42.666;23.344;2023-02-03T11:34:51;95154.56;;;8.70;42.71
3178;BME280;38141;42.666;23.344;2023-02-03T11:37:26;95145.25;;;9.35;40.86
3178;BME280;38141;42.666;23.344;2023-02-03T11:39:54;95134.56;;;9.72;41.81
3178;BME280;38141;42.666;23.344;2023-02-03T11:42:22;95135.81;;;9.78;41.31
3178;BME280;38141;42.666;23.344;2023-02-03T11:45:12;95127.69;;;10.38;40.16
3178;BME280;38141;42.666;23.344;2023-02-03T11:47:45;95102.63;;;9.78;40.88
3178;BME280;38141;42.666;23.344;2023-02-03T11:50:19;95133.38;;;9.70;40.82
3178;BME280;38141;42.666;23.344;2023-02-03T11:53:14;95124.13;;;9.18;41.18
3178;BME280;38141;42.666;23.344;2023-02-03T11:55:54;95127.00;;;7.99;44.13
3178;BME280;38141;42.666;23.344;2023-02-03T11:58:52;95131.41;;;7.88;43.39
3178;BME280;38141;42.666;23.344;2023-02-03T12:01:46;95140.78;;;9.47;41.43
3178;BME280;38141;42.666;23.344;2023-02-03T12:04:40;95126.91;;;9.22;40.32
3178;BME280;38141;42.666;23.344;2023-02-03T12:10:34;95140.88;;;9.05;40.07
3178;BME280;38141;42.666;23.344;2023-02-03T12:13:14;95138.81;;;8.72;39.82
3178;BME280;38141;42.666;23.344;2023-02-03T12:15:56;95140.28;;;9.41;38.96
3178;BME280;38141;42.666;23.344;2023-02-03T12:18:43;95139.50;;;9.41;39.07
3178;BME280;38141;42.666;23.344;2023-02-03T12:21:29;95143.34;;;8.68;40.01
3178;BME280;38141;42.666;23.344;2023-02-03T12:24:03;95129.41;;;8.04;39.89
3178;BME280;38141;42.666;23.344;2023-02-03T12:26:39;95139.00;;;7.83;39.60
3178;BME280;38141;42.666;23.344;2023-02-03T12:29:10;95148.38;;;7.03;41.30
3178;BME280;38141;42.666;23.344;2023-02-03T12:31:41;95153.34;;;7.36;41.11
3178;BME280;38141;42.666;23.344;2023-02-03T12:34:16;95136.78;;;7.34;41.82
3178;BME280;38141;42.666;23.344;2023-02-03T12:36:48;95118.28;;;7.48;40.99
3178;BME280;38141;42.666;23.344;2023-02-03T12:39:23;95126.84;;;6.88;42.18
3178;BME280;38141;42.666;23.344;2023-02-03T12:41:57;95104.13;;;6.69;42.31
3178;BME280;38141;42.666;23.344;2023-02-03T12:44:30;95134.03;;;6.68;43.66
3178;BME280;38141;42.666;23.344;2023-02-03T12:47:06;95124.50;;;6.39;44.45
3178;BME280;38141;42.666;23.344;2023-02-03T12:49:43;95122.19;;;6.53;44.01
3178;BME280;38141;42.666;23.344;2023-02-03T12:52:18;95110.38;;;6.58;43.96
3178;BME280;38141;42.666;23.344;2023-02-03T12:54:53;95119.53;;;6.41;44.86
3178;BME280;38141;42.666;23.344;2023-02-03T12:57:26;95120.94;;;6.51;45.58
3178;BME280;38141;42.666;23.344;2023-02-03T13:00:02;95109.66;;;6.45;45.72
3178;BME280;38141;42.666;23.344;2023-02-03T13:02:34;95110.28;;;6.39;45.69
3178;BME280;38141;42.666;23.344;2023-02-03T13:05:08;95098.53;;;6.15;45.76
3178;BME280;38141;42.666;23.344;2023-02-03T13:07:46;95101.81;;;6.09;46.14
3178;BME280;38141;42.666;23.344;2023-02-03T13:10:18;95072.25;;;5.93;46.92
3178;BME280;38141;42.666;23.344;2023-02-03T13:12:50;95113.84;;;6.43;47.40
3178;BME280;38141;42.666;23.344;2023-02-03T13:15:23;95118.09;;;6.44;46.89
3178;BME280;38141;42.666;23.344;2023-02-03T13:17:55;95103.50;;;6.29;48.41
3178;BME280;38141;42.666;23.344;2023-02-03T13:20:24;95107.31;;;6.28;47.63
3178;BME280;38141;42.666;23.344;2023-02-03T13:22:54;95114.00;;;6.50;47.80
3178;BME280;38141;42.666;23.344;2023-02-03T13:25:24;95093.25;;;6.03;49.04
3178;BME280;38141;42.666;23.344;2023-02-03T13:28:01;95109.75;;;5.90;48.95